Orbital elements of FENGYUN 1C DEB
| Launched | 9 May 1999 |
| Flight ended | – |
| Launch site | Taiyuan Space Center, PRC |
| Owner | People's Republic of China |
| NORAD ID | 30266 |
| Date fetched |
Epoch osculation |
Inc. [°] |
Ecc. | RA asc node [hr] |
Arg Peri. [°] |
Mean anom [°] |
Mean motion [rev/day] |
Abs. mag |
| Date fetched |
Epoch osculation |
Inc. [°] |
Ecc. | RA asc node [hr] |
Arg Peri. [°] |
Mean anom [°] |
Mean motion [rev/day] |
Abs. mag |
| 2026 May 03 17:57 | 2026 Apr 30 10:47:44 | 99.0283 | 0.00823 | 12.7684 | 33.8374 | 344.5614 | 14.15862 | – |
| 2026 May 02 17:57 | 2026 Apr 30 10:47:44 | 99.0283 | 0.00823 | 12.7684 | 33.8374 | 344.5614 | 14.15862 | – |
| 2026 May 01 17:56 | 2026 Apr 30 10:47:44 | 99.0283 | 0.00823 | 12.7684 | 33.8374 | 344.5614 | 14.15862 | – |
| 2026 Apr 30 17:56 | 2026 Apr 30 10:47:44 | 99.0283 | 0.00823 | 12.7684 | 33.8374 | 344.5614 | 14.15862 | – |
| 2026 Apr 29 17:57 | 2026 Apr 24 04:01:25 | 99.0285 | 0.00830 | 12.3441 | 51.6496 | 344.5614 | 14.15862 | – |
| 2026 Apr 28 17:56 | 2026 Apr 24 04:01:25 | 99.0285 | 0.00830 | 12.3441 | 51.6496 | 344.5614 | 14.15862 | – |
| 2026 Apr 27 17:58 | 2026 Apr 24 04:01:25 | 99.0285 | 0.00830 | 12.3441 | 51.6496 | 344.5614 | 14.15862 | – |
| 2026 Apr 26 17:58 | 2026 Apr 24 04:01:25 | 99.0285 | 0.00830 | 12.3441 | 51.6496 | 344.5614 | 14.15862 | – |
| 2026 Apr 25 17:58 | 2026 Apr 24 04:01:25 | 99.0285 | 0.00830 | 12.3441 | 51.6496 | 344.5614 | 14.15862 | – |
| 2026 Apr 24 17:59 | 2026 Apr 24 04:01:25 | 99.0285 | 0.00830 | 12.3441 | 51.6496 | 344.5614 | 14.15862 | – |
| 2026 Apr 23 17:57 | 2026 Apr 19 03:29:06 | 99.0288 | 0.00835 | 12.0048 | 65.8069 | 344.5614 | 14.15862 | – |
| 2026 Apr 22 17:57 | 2026 Apr 19 03:29:06 | 99.0288 | 0.00835 | 12.0048 | 65.8069 | 344.5614 | 14.15862 | – |
| 2026 Apr 21 17:57 | 2026 Apr 19 03:29:06 | 99.0288 | 0.00835 | 12.0048 | 65.8069 | 344.5614 | 14.15862 | – |
| 2026 Apr 20 17:57 | 2026 Apr 19 03:29:06 | 99.0288 | 0.00835 | 12.0048 | 65.8069 | 344.5614 | 14.15862 | – |
| 2026 Apr 19 17:58 | 2026 Apr 19 03:29:06 | 99.0288 | 0.00835 | 12.0048 | 65.8069 | 344.5614 | 14.15862 | – |
| 2026 Apr 18 17:56 | 2026 Apr 13 03:19:09 | 99.0290 | 0.00840 | 11.5990 | 82.6702 | 344.5614 | 14.15862 | – |
| 2026 Apr 16 17:57 | 2026 Apr 13 03:19:09 | 99.0290 | 0.00840 | 11.5990 | 82.6702 | 344.5614 | 14.15862 | – |
| 2026 Apr 14 17:57 | 2026 Apr 13 03:19:09 | 99.0290 | 0.00840 | 11.5990 | 82.6702 | 344.5614 | 14.15862 | – |
| 2026 Apr 13 17:57 | 2026 Apr 13 03:19:09 | 99.0290 | 0.00840 | 11.5990 | 82.6702 | 344.5614 | 14.15862 | – |
| 2026 Apr 12 17:57 | 2026 Apr 08 15:21:43 | 99.0288 | 0.00844 | 11.2951 | 95.2164 | 344.5614 | 14.15862 | – |
| 2026 Apr 11 17:57 | 2026 Apr 08 15:21:43 | 99.0288 | 0.00844 | 11.2951 | 95.2164 | 344.5614 | 14.15862 | – |
| 2026 Apr 10 17:58 | 2026 Apr 08 15:21:43 | 99.0288 | 0.00844 | 11.2951 | 95.2164 | 344.5614 | 14.15862 | – |
| 2026 Apr 09 18:01 | 2026 Apr 08 15:21:43 | 99.0288 | 0.00844 | 11.2951 | 95.2164 | 344.5614 | 14.15862 | – |
| 2026 Apr 08 17:57 | 2026 Apr 08 15:21:43 | 99.0288 | 0.00844 | 11.2951 | 95.2164 | 344.5614 | 14.15862 | – |
| 2026 Apr 07 17:57 | 2026 Apr 01 11:23:27 | 99.0300 | 0.00849 | 10.8111 | 115.1486 | 344.5614 | 14.15862 | – |
| 2026 Apr 06 17:57 | 2026 Apr 01 11:23:27 | 99.0300 | 0.00849 | 10.8111 | 115.1486 | 344.5614 | 14.15862 | – |